Time;durP1;ratioP1;P1;durP2;ratioP2;P2;SDS_P1;SDS_P2;PMS_P1;PMS_P2;Temp;Humidity;BMP_temperature;BMP_pressure;BME280_temperature;BME280_humidity;BME280_pressure;Samples;Min_cycle;Max_cycle;Signal;HPM_P1;HPM_P2
2021/08/15 00:00:30;;;;;;;;;;;22.00;66.60;;;;;;5015948;28;1152;-73
2021/08/15 00:02:55;;;;;;;;;;;22.00;66.40;;;;;;4997491;28;1144;-74
2021/08/15 00:05:20;;;;;;;;;;;22.00;66.30;;;;;;5013559;28;1906;-73
2021/08/15 00:07:46;;;;;;;;;;;22.00;66.50;;;;;;5014712;28;1089;-74
2021/08/15 00:10:11;;;;;;;;;;;22.00;66.50;;;;;;5014470;28;1065;-73
2021/08/15 00:12:37;;;;;;;;;;;22.00;66.20;;;;;;5014673;28;1084;-73
2021/08/15 00:15:03;;;;;;;;;;;22.00;66.10;;;;;;5013541;28;1367;-74
2021/08/15 00:17:28;;;;;;;;;;;22.00;66.20;;;;;;5014296;28;1085;-74
2021/08/15 00:19:54;;;;;;;;;;;22.00;66.50;;;;;;5014082;28;1182;-74
2021/08/15 00:22:19;;;;;;;;;;;22.00;66.40;;;;;;5014661;28;1045;-74
2021/08/15 00:24:45;;;;;;;;;;;22.00;66.40;;;;;;4996376;28;1305;-75
2021/08/15 00:27:10;;;;;;;;;;;22.00;66.00;;;;;;5014267;28;1959;-74
2021/08/15 00:29:36;;;;;;;;;;;22.00;66.10;;;;;;5009663;28;1209;-73
2021/08/15 00:32:01;;;;;;;;;;;22.00;65.90;;;;;;5025375;28;1181;-74
2021/08/15 00:34:28;;;;;;;;;;;22.00;65.90;;;;;;5029508;28;1254;-73
2021/08/15 00:36:53;;;;;;;;;;;22.00;65.90;;;;;;5014668;28;1081;-74
2021/08/15 00:39:19;;;;;;;;;;;22.00;65.90;;;;;;5014101;28;1148;-74
2021/08/15 00:41:44;;;;;;;;;;;22.00;65.70;;;;;;5025351;28;1080;-74
2021/08/15 00:44:11;;;;;;;;;;;22.00;65.90;;;;;;5015406;28;1342;-75
2021/08/15 00:46:37;;;;;;;;;;;22.00;66.30;;;;;;5033562;28;1963;-74
2021/08/15 00:49:02;;;;;;;;;;;22.00;66.40;;;;;;5015816;28;1149;-74
2021/08/15 00:51:28;;;;;;;;;;;22.00;66.10;;;;;;5016151;28;1054;-75
2021/08/15 00:53:53;;;;;;;;;;;22.00;66.00;;;;;;5033556;28;1189;-74
2021/08/15 00:56:20;;;;;;;;;;;22.00;66.30;;;;;;5015253;28;1325;-75
2021/08/15 00:58:45;;;;;;;;;;;22.00;66.30;;;;;;5015878;28;1117;-75
2021/08/15 01:01:11;;;;;;;;;;;22.00;66.00;;;;;;5015965;28;1104;-74
2021/08/15 01:03:37;;;;;;;;;;;22.00;66.00;;;;;;5033072;28;1356;-74
2021/08/15 01:06:03;;;;;;;;;;;22.00;65.90;;;;;;5015068;28;1906;-74
2021/08/15 01:08:29;;;;;;;;;;;22.00;65.90;;;;;;5033237;28;1199;-74
2021/08/15 01:10:54;;;;;;;;;;;22.00;66.00;;;;;;5015572;28;1112;-74
2021/08/15 01:13:20;;;;;;;;;;;22.00;65.90;;;;;;5014760;28;1279;-74
2021/08/15 01:15:45;;;;;;;;;;;22.00;65.90;;;;;;5015021;28;1104;-74
2021/08/15 01:18:21;;;;;;;;;;;22.00;66.00;;;;;;5014457;28;981;-75
2021/08/15 01:20:46;;;;;;;;;;;22.00;66.00;;;;;;5013451;28;1124;-74
2021/08/15 01:23:12;;;;;;;;;;;22.00;66.00;;;;;;5012883;28;1264;-74
2021/08/15 01:25:37;;;;;;;;;;;22.00;66.00;;;;;;5007944;28;1953;-74
2021/08/15 01:28:02;;;;;;;;;;;22.00;66.00;;;;;;5014880;28;1163;-74
2021/08/15 01:30:28;;;;;;;;;;;22.00;66.00;;;;;;5003377;28;1117;-74
2021/08/15 01:32:53;;;;;;;;;;;22.00;65.90;;;;;;4995353;28;1101;-72
2021/08/15 01:35:19;;;;;;;;;;;22.00;65.80;;;;;;5024267;28;1207;-74
2021/08/15 01:37:44;;;;;;;;;;;22.00;65.90;;;;;;5027290;28;1158;-73
2021/08/15 01:40:10;;;;;;;;;;;22.00;65.70;;;;;;5012868;28;1144;-73
2021/08/15 01:42:36;;;;;;;;;;;21.90;65.60;;;;;;5013353;28;1042;-74
2021/08/15 01:45:05;;;;;;;;;;;22.00;65.60;;;;;;5014593;28;1890;-74
2021/08/15 01:47:30;;;;;;;;;;;22.00;65.50;;;;;;5012603;28;1121;-74
2021/08/15 01:49:56;;;;;;;;;;;22.00;65.50;;;;;;5012509;28;1179;-73
2021/08/15 01:52:21;;;;;;;;;;;22.00;65.50;;;;;;5012913;28;1176;-74
2021/08/15 01:54:47;;;;;;;;;;;22.00;65.60;;;;;;5012505;28;1216;-74
2021/08/15 01:57:12;;;;;;;;;;;22.00;65.40;;;;;;4994720;28;1176;-73
2021/08/15 01:59:38;;;;;;;;;;;22.00;65.50;;;;;;5012433;28;1057;-74
2021/08/15 02:02:03;;;;;;;;;;;21.90;65.50;;;;;;5012648;28;1069;-74
2021/08/15 02:04:29;;;;;;;;;;;22.00;65.60;;;;;;4994420;28;1342;-74
2021/08/15 02:06:54;;;;;;;;;;;21.90;66.20;;;;;;5008394;28;1902;-75
2021/08/15 02:09:20;;;;;;;;;;;21.90;65.40;;;;;;5023272;28;1139;-74
2021/08/15 02:11:45;;;;;;;;;;;21.90;65.40;;;;;;5032088;28;1089;-74
2021/08/15 02:14:11;;;;;;;;;;;21.90;65.30;;;;;;5032332;28;1263;-75
2021/08/15 02:16:36;;;;;;;;;;;21.90;65.30;;;;;;5032061;28;1132;-74
2021/08/15 02:19:01;;;;;;;;;;;21.90;65.30;;;;;;5023581;28;683;-74
2021/08/15 02:21:27;;;;;;;;;;;21.90;65.20;;;;;;5016507;28;1128;-74
2021/08/15 02:23:52;;;;;;;;;;;21.90;65.20;;;;;;5016598;28;1358;-74
2021/08/15 02:26:18;;;;;;;;;;;21.90;65.30;;;;;;5015938;28;1923;-74
2021/08/15 02:28:43;;;;;;;;;;;21.90;65.20;;;;;;5020551;28;1084;-74
2021/08/15 02:31:08;;;;;;;;;;;21.90;65.10;;;;;;5019113;28;1108;-74
2021/08/15 02:33:34;;;;;;;;;;;21.90;65.10;;;;;;5016337;28;1370;-74
2021/08/15 02:35:59;;;;;;;;;;;21.90;65.10;;;;;;5015365;28;1081;-75
2021/08/15 02:38:25;;;;;;;;;;;21.90;65.10;;;;;;5016614;28;1167;-75
2021/08/15 02:40:50;;;;;;;;;;;21.90;64.90;;;;;;5034162;28;1022;-75
2021/08/15 02:43:16;;;;;;;;;;;21.90;64.80;;;;;;5018907;28;1271;-74
2021/08/15 02:45:41;;;;;;;;;;;21.90;64.90;;;;;;5018536;28;1898;-75
2021/08/15 02:48:06;;;;;;;;;;;21.90;64.90;;;;;;5016412;28;1131;-74
2021/08/15 02:50:32;;;;;;;;;;;21.90;64.90;;;;;;4998521;28;1093;-75
2021/08/15 02:52:57;;;;;;;;;;;21.90;64.70;;;;;;5015893;28;1061;-75
2021/08/15 02:55:23;;;;;;;;;;;21.90;64.60;;;;;;5015166;28;1231;-75
2021/08/15 02:57:48;;;;;;;;;;;21.90;64.60;;;;;;5026031;28;1065;-74
2021/08/15 03:00:14;;;;;;;;;;;21.90;64.50;;;;;;5017587;28;1123;-74
2021/08/15 03:02:39;;;;;;;;;;;21.90;64.50;;;;;;5016057;28;1196;-74
2021/08/15 03:05:05;;;;;;;;;;;21.90;64.70;;;;;;4997350;28;1967;-75
2021/08/15 03:07:30;;;;;;;;;;;21.90;64.60;;;;;;4998124;28;1050;-75
2021/08/15 03:09:56;;;;;;;;;;;21.90;64.70;;;;;;4997919;28;1153;-75
2021/08/15 03:12:21;;;;;;;;;;;21.90;64.70;;;;;;5015587;28;1160;-75
2021/08/15 03:14:47;;;;;;;;;;;21.90;64.60;;;;;;5014372;28;1281;-74
2021/08/15 03:17:12;;;;;;;;;;;21.90;64.70;;;;;;5017731;28;1167;-74
2021/08/15 03:19:38;;;;;;;;;;;21.90;64.70;;;;;;5017651;28;1341;-75
2021/08/15 03:22:04;;;;;;;;;;;21.90;64.60;;;;;;5017842;28;1085;-74
2021/08/15 03:24:29;;;;;;;;;;;21.90;64.60;;;;;;5016504;28;1203;-75
2021/08/15 03:26:55;;;;;;;;;;;21.90;64.60;;;;;;5017498;28;1965;-75
2021/08/15 03:29:20;;;;;;;;;;;21.90;64.50;;;;;;5023565;28;1045;-74
2021/08/15 03:31:45;;;;;;;;;;;21.80;64.40;;;;;;5015483;28;1108;-75
2021/08/15 03:34:11;;;;;;;;;;;21.80;64.50;;;;;;5015256;28;1299;-75
2021/08/15 03:36:36;;;;;;;;;;;21.80;64.40;;;;;;5015322;28;1116;-74
2021/08/15 03:39:02;;;;;;;;;;;21.90;64.40;;;;;;5000301;28;1192;-74
2021/08/15 03:41:27;;;;;;;;;;;21.80;64.40;;;;;;5034695;28;1056;-75
2021/08/15 03:43:53;;;;;;;;;;;21.80;64.30;;;;;;5014050;28;1295;-74
2021/08/15 03:46:18;;;;;;;;;;;21.80;64.40;;;;;;5014161;28;1965;-75
2021/08/15 03:48:44;;;;;;;;;;;21.80;64.40;;;;;;5014889;28;1108;-75
2021/08/15 03:51:09;;;;;;;;;;;21.80;64.30;;;;;;5015118;28;1073;-74
2021/08/15 03:53:35;;;;;;;;;;;21.80;64.40;;;;;;5014152;28;1282;-74
2021/08/15 03:56:00;;;;;;;;;;;21.80;64.30;;;;;;5014236;28;1092;-75
2021/08/15 03:58:28;;;;;;;;;;;21.80;64.50;;;;;;5014868;28;1045;-74
2021/08/15 04:00:53;;;;;;;;;;;21.80;64.50;;;;;;5015013;28;1108;-73
2021/08/15 04:03:18;;;;;;;;;;;21.80;64.40;;;;;;5023036;28;1881;-74
2021/08/15 04:05:44;;;;;;;;;;;21.80;64.30;;;;;;4996794;28;2168;-74
2021/08/15 04:08:09;;;;;;;;;;;21.80;64.30;;;;;;5030475;28;949;-73
2021/08/15 04:10:35;;;;;;;;;;;21.80;64.20;;;;;;5010447;28;1120;-73
2021/08/15 04:13:00;;;;;;;;;;;21.80;64.20;;;;;;5002407;28;1097;-73
2021/08/15 04:15:26;;;;;;;;;;;21.80;64.20;;;;;;5032634;28;1597;-72
2021/08/15 04:17:51;;;;;;;;;;;21.80;64.10;;;;;;5014973;28;1156;-72
2021/08/15 04:20:17;;;;;;;;;;;21.80;64.40;;;;;;5033003;28;1142;-73
2021/08/15 04:22:43;;;;;;;;;;;21.80;64.40;;;;;;5015413;28;1108;-73
2021/08/15 04:25:09;;;;;;;;;;;21.80;64.40;;;;;;5014164;28;2003;-73
2021/08/15 04:27:34;;;;;;;;;;;21.80;65.00;;;;;;5030275;28;1131;-74
2021/08/15 04:29:59;;;;;;;;;;;21.80;64.30;;;;;;5024633;28;997;-74
2021/08/15 04:32:25;;;;;;;;;;;21.80;64.10;;;;;;5013121;28;1081;-73
2021/08/15 04:34:50;;;;;;;;;;;21.80;64.10;;;;;;5012935;28;1213;-73
2021/08/15 04:37:19;;;;;;;;;;;21.80;64.30;;;;;;4996816;28;1077;-73
2021/08/15 04:39:45;;;;;;;;;;;21.80;64.20;;;;;;4996484;28;1279;-73
2021/08/15 04:42:11;;;;;;;;;;;21.80;64.00;;;;;;5008402;28;1148;-74
2021/08/15 04:44:36;;;;;;;;;;;21.80;64.50;;;;;;5023970;28;1305;-74
2021/08/15 04:47:02;;;;;;;;;;;21.80;64.30;;;;;;4995045;28;1938;-74
2021/08/15 04:49:27;;;;;;;;;;;21.80;64.60;;;;;;5013046;28;969;-74
2021/08/15 04:51:54;;;;;;;;;;;21.80;64.40;;;;;;5013315;28;1108;-75
2021/08/15 04:54:23;;;;;;;;;;;21.80;64.30;;;;;;4995376;28;1213;-74
2021/08/15 04:56:49;;;;;;;;;;;21.80;64.50;;;;;;4995682;28;1148;-74
2021/08/15 04:59:14;;;;;;;;;;;21.80;64.80;;;;;;5013048;28;1159;-72
2021/08/15 05:01:40;;;;;;;;;;;21.80;64.60;;;;;;5012277;28;1049;-72
2021/08/15 05:04:05;;;;;;;;;;;21.80;65.80;;;;;;5012309;28;1288;-73
2021/08/15 05:06:32;;;;;;;;;;;21.80;69.30;;;;;;5012294;28;1902;-72
2021/08/15 05:08:57;;;;;;;;;;;21.80;70.10;;;;;;5012514;28;1085;-73
2021/08/15 05:11:23;;;;;;;;;;;21.80;68.80;;;;;;5012704;28;1089;-72
2021/08/15 05:13:49;;;;;;;;;;;21.80;68.30;;;;;;5012411;28;1269;-73
2021/08/15 05:16:15;;;;;;;;;;;21.90;68.20;;;;;;5011634;28;1057;-72
2021/08/15 05:18:40;;;;;;;;;;;21.90;68.30;;;;;;5012201;28;1089;-73
2021/08/15 05:21:06;;;;;;;;;;;21.90;68.40;;;;;;5012124;28;1077;-72
2021/08/15 05:23:31;;;;;;;;;;;21.90;68.60;;;;;;4994771;28;1251;-72
2021/08/15 05:25:56;;;;;;;;;;;21.90;69.10;;;;;;4994348;28;1969;-72
2021/08/15 05:28:22;;;;;;;;;;;21.90;69.50;;;;;;5013628;28;1220;-71
2021/08/15 05:30:47;;;;;;;;;;;21.90;69.80;;;;;;5017188;28;1123;-72
2021/08/15 05:33:13;;;;;;;;;;;21.90;70.00;;;;;;4994634;28;1284;-72
2021/08/15 05:35:38;;;;;;;;;;;21.90;69.40;;;;;;5012570;28;1057;-72
2021/08/15 05:38:04;;;;;;;;;;;21.90;68.90;;;;;;5013003;28;1061;-73
2021/08/15 05:40:29;;;;;;;;;;;21.90;68.90;;;;;;5027560;28;1049;-72
2021/08/15 05:42:54;;;;;;;;;;;21.90;69.10;;;;;;5014071;28;1069;-72
2021/08/15 05:45:20;;;;;;;;;;;22.00;69.20;;;;;;5016598;28;2022;-71
2021/08/15 05:47:45;;;;;;;;;;;22.00;69.10;;;;;;5012200;28;1100;-72
2021/08/15 05:50:11;;;;;;;;;;;22.00;69.00;;;;;;5013060;28;1041;-72
2021/08/15 05:52:36;;;;;;;;;;;22.00;69.20;;;;;;4994360;28;1085;-72
2021/08/15 05:55:02;;;;;;;;;;;22.00;69.10;;;;;;5010954;28;1252;-72
2021/08/15 05:57:28;;;;;;;;;;;22.00;69.40;;;;;;5011730;28;1065;-72
2021/08/15 05:59:53;;;;;;;;;;;22.00;69.30;;;;;;5011784;28;1091;-72
2021/08/15 06:02:18;;;;;;;;;;;22.00;69.40;;;;;;4994067;28;1140;-72
2021/08/15 06:04:44;;;;;;;;;;;22.00;69.30;;;;;;5010924;28;1362;-71
2021/08/15 06:07:11;;;;;;;;;;;22.10;69.40;;;;;;5011667;28;1954;-72
2021/08/15 06:09:36;;;;;;;;;;;22.10;69.60;;;;;;5011548;28;1053;-72
2021/08/15 06:12:05;;;;;;;;;;;22.10;69.70;;;;;;5011178;28;1283;-72
2021/08/15 06:14:30;;;;;;;;;;;22.10;70.00;;;;;;5011252;28;1267;-72
2021/08/15 06:16:56;;;;;;;;;;;22.10;70.00;;;;;;4993858;28;1101;-73
2021/08/15 06:19:21;;;;;;;;;;;22.10;70.00;;;;;;5007468;28;1100;-72
2021/08/15 06:21:46;;;;;;;;;;;22.10;70.10;;;;;;5024555;28;1151;-72
2021/08/15 06:24:12;;;;;;;;;;;22.10;70.10;;;;;;5011806;28;1282;-72
2021/08/15 06:26:37;;;;;;;;;;;22.10;70.00;;;;;;5011369;28;1898;-72
2021/08/15 06:29:03;;;;;;;;;;;22.10;70.00;;;;;;5001411;28;1017;-72
2021/08/15 06:31:28;;;;;;;;;;;22.10;70.10;;;;;;5012954;28;1208;-72
2021/08/15 06:33:54;;;;;;;;;;;22.10;70.30;;;;;;5012645;28;1261;-72
2021/08/15 06:36:19;;;;;;;;;;;22.20;70.10;;;;;;4994734;28;1144;-72
2021/08/15 06:38:44;;;;;;;;;;;22.20;70.20;;;;;;5011707;28;1227;-71
2021/08/15 06:41:10;;;;;;;;;;;22.20;70.30;;;;;;5028151;28;1060;-71
2021/08/15 06:43:35;;;;;;;;;;;22.20;70.60;;;;;;5013114;28;1198;-71
2021/08/15 06:46:01;;;;;;;;;;;22.20;69.80;;;;;;5010309;28;1898;-73
2021/08/15 06:48:26;;;;;;;;;;;22.20;68.70;;;;;;5007245;28;1082;-73
2021/08/15 06:50:58;;;;;;;;;;;22.10;68.90;;;;;;5018126;28;930;-72
2021/08/15 06:53:23;;;;;;;;;;;22.10;68.00;;;;;;5014486;28;1387;-71
2021/08/15 06:55:49;;;;;;;;;;;22.10;68.30;;;;;;5013440;28;1077;-72
2021/08/15 06:58:14;;;;;;;;;;;22.10;68.80;;;;;;5014084;28;1045;-72
2021/08/15 07:00:40;;;;;;;;;;;22.10;67.80;;;;;;5032045;28;1080;-72
2021/08/15 07:03:06;;;;;;;;;;;22.00;67.60;;;;;;5031882;28;1100;-72
2021/08/15 07:05:32;;;;;;;;;;;22.00;68.40;;;;;;5034533;28;1906;-72
2021/08/15 07:07:58;;;;;;;;;;;22.00;68.40;;;;;;5035550;28;1147;-72
2021/08/15 07:10:23;;;;;;;;;;;22.00;68.50;;;;;;5035603;28;1127;-72
2021/08/15 07:12:53;;;;;;;;;;;22.00;68.20;;;;;;5035820;28;1144;-72
2021/08/15 07:15:19;;;;;;;;;;;22.00;68.30;;;;;;5034961;28;1326;-72
2021/08/15 07:17:45;;;;;;;;;;;22.00;68.60;;;;;;5035482;28;1096;-72
2021/08/15 07:20:10;;;;;;;;;;;22.00;68.80;;;;;;5017796;28;1077;-72
2021/08/15 07:22:36;;;;;;;;;;;22.00;68.80;;;;;;5035133;28;1167;-72
2021/08/15 07:25:03;;;;;;;;;;;22.00;68.40;;;;;;5053222;23;1785;-67
2021/08/15 07:27:28;;;;;;;;;;;22.00;68.80;;;;;;5020199;28;1976;-66
2021/08/15 07:29:54;;;;;;;;;;;22.00;68.40;;;;;;5028413;28;1119;-66
2021/08/15 07:32:19;;;;;;;;;;;22.00;68.90;;;;;;5035108;28;1060;-67
2021/08/15 07:34:45;;;;;;;;;;;22.00;68.70;;;;;;5034498;28;1198;-67
2021/08/15 07:37:10;;;;;;;;;;;22.00;68.80;;;;;;5035078;28;1064;-66
2021/08/15 07:39:36;;;;;;;;;;;22.00;68.30;;;;;;5034434;28;1060;-66
2021/08/15 07:42:01;;;;;;;;;;;21.90;68.80;;;;;;5034804;28;1083;-67
2021/08/15 07:44:26;;;;;;;;;;;21.90;69.10;;;;;;5032432;28;1381;-67
2021/08/15 07:46:52;;;;;;;;;;;21.90;68.90;;;;;;5034631;28;2351;-67
2021/08/15 07:49:17;;;;;;;;;;;21.90;68.80;;;;;;5033501;28;1073;-67
2021/08/15 07:51:43;;;;;;;;;;;21.90;69.10;;;;;;5034895;28;1777;-65
2021/08/15 07:54:09;;;;;;;;;;;21.90;69.10;;;;;;5024742;28;1938;-67
2021/08/15 07:56:35;;;;;;;;;;;21.90;69.30;;;;;;5025652;28;1151;-67
2021/08/15 07:59:00;;;;;;;;;;;21.90;69.10;;;;;;5033115;28;1115;-67
2021/08/15 08:01:26;;;;;;;;;;;21.90;69.00;;;;;;5033529;28;1221;-66
2021/08/15 08:03:51;;;;;;;;;;;21.90;69.50;;;;;;5033645;28;1385;-67
2021/08/15 08:06:16;;;;;;;;;;;21.90;69.40;;;;;;5030821;28;1930;-66
2021/08/15 08:08:42;;;;;;;;;;;21.90;68.80;;;;;;5033437;28;1381;-66
2021/08/15 08:11:07;;;;;;;;;;;21.90;69.20;;;;;;5025192;28;1648;-67
2021/08/15 08:13:33;;;;;;;;;;;21.90;69.20;;;;;;5034055;28;977;-65
2021/08/15 08:15:58;;;;;;;;;;;21.90;69.40;;;;;;5033781;28;1439;-67
2021/08/15 08:18:24;;;;;;;;;;;21.90;69.20;;;;;;5033621;28;1385;-66
2021/08/15 08:20:49;;;;;;;;;;;21.90;68.80;;;;;;5034634;28;1455;-66
2021/08/15 08:23:15;;;;;;;;;;;21.90;69.00;;;;;;5033272;28;1647;-67
2021/08/15 08:25:41;;;;;;;;;;;21.90;68.60;;;;;;5031934;28;1955;-67
2021/08/15 08:28:06;;;;;;;;;;;21.90;68.60;;;;;;5033561;28;1665;-67
2021/08/15 08:30:32;;;;;;;;;;;21.90;68.50;;;;;;5033114;28;1473;-66
2021/08/15 08:32:57;;;;;;;;;;;21.90;68.70;;;;;;5033335;28;1394;-67
2021/08/15 08:35:22;;;;;;;;;;;21.90;68.70;;;;;;5031828;28;1657;-66
2021/08/15 08:37:48;;;;;;;;;;;21.90;67.70;;;;;;5033029;28;1381;-67
2021/08/15 08:40:14;;;;;;;;;;;21.90;68.10;;;;;;5033678;28;1648;-67
2021/08/15 08:42:39;;;;;;;;;;;21.90;68.40;;;;;;5032557;28;1745;-67
2021/08/15 08:45:05;;;;;;;;;;;21.90;68.60;;;;;;5030094;28;1345;-67
2021/08/15 08:47:31;;;;;;;;;;;21.90;68.50;;;;;;5033973;28;1953;-67
2021/08/15 08:49:56;;;;;;;;;;;21.90;68.00;;;;;;5032506;28;1379;-66
2021/08/15 08:52:22;;;;;;;;;;;21.90;67.30;;;;;;5015759;28;1462;-67
2021/08/15 08:54:48;;;;;;;;;;;21.90;67.10;;;;;;5031404;28;1418;-67
2021/08/15 08:57:14;;;;;;;;;;;21.90;66.90;;;;;;5030750;28;1463;-67
2021/08/15 08:59:39;;;;;;;;;;;21.90;66.40;;;;;;5033158;28;1345;-66
2021/08/15 09:02:04;;;;;;;;;;;21.90;66.70;;;;;;5033346;28;1683;-65
2021/08/15 09:04:30;;;;;;;;;;;21.90;66.70;;;;;;5032779;28;1671;-67
2021/08/15 09:06:55;;;;;;;;;;;21.90;66.80;;;;;;5031801;28;1939;-67
2021/08/15 09:09:21;;;;;;;;;;;22.00;67.00;;;;;;5032100;28;1380;-65
2021/08/15 09:11:47;;;;;;;;;;;22.00;67.00;;;;;;5032216;28;1631;-67
2021/08/15 09:14:13;;;;;;;;;;;22.00;66.90;;;;;;5033427;28;1675;-67
2021/08/15 09:16:48;;;;;;;;;;;21.90;66.40;;;;;;5033218;28;1727;-67
2021/08/15 09:19:23;;;;;;;;;;;22.00;66.10;;;;;;5032217;28;1411;-67
2021/08/15 09:21:48;;;;;;;;;;;22.00;66.70;;;;;;5033213;28;1408;-67
2021/08/15 09:24:14;;;;;;;;;;;21.90;66.20;;;;;;5028498;28;1705;-67
2021/08/15 09:26:39;;;;;;;;;;;21.90;66.20;;;;;;5031683;28;1902;-66
2021/08/15 09:29:11;;;;;;;;;;;21.90;66.70;;;;;;5031113;28;1415;-67
2021/08/15 09:31:36;;;;;;;;;;;21.90;66.40;;;;;;5022728;28;2113;-67
2021/08/15 09:34:02;;;;;;;;;;;22.00;66.20;;;;;;5027376;28;1205;-66
2021/08/15 09:36:30;;;;;;;;;;;22.00;66.30;;;;;;5026459;28;1121;-67
2021/08/15 09:38:56;;;;;;;;;;;22.00;66.40;;;;;;5031618;28;1187;-67
2021/08/15 09:41:22;;;;;;;;;;;22.00;65.90;;;;;;5032973;28;1005;-66
2021/08/15 09:43:48;;;;;;;;;;;22.00;65.40;;;;;;5030337;28;1386;-67
2021/08/15 09:46:13;;;;;;;;;;;22.00;65.70;;;;;;5030804;28;1905;-67
2021/08/15 09:48:42;;;;;;;;;;;22.00;65.40;;;;;;5031262;28;1073;-67
2021/08/15 09:51:17;;;;;;;;;;;22.00;65.10;;;;;;5032340;28;1084;-67
2021/08/15 09:53:49;;;;;;;;;;;21.90;65.70;;;;;;5032755;28;1111;-67
2021/08/15 09:56:14;;;;;;;;;;;21.90;64.80;;;;;;5031884;28;1053;-67
2021/08/15 09:58:40;;;;;;;;;;;22.00;64.70;;;;;;5032558;28;1168;-67
2021/08/15 10:01:06;;;;;;;;;;;22.00;64.20;;;;;;5030485;28;1077;-66
2021/08/15 10:03:32;;;;;;;;;;;22.00;64.20;;;;;;5032456;28;1072;-66
2021/08/15 10:05:58;;;;;;;;;;;22.00;64.10;;;;;;5031732;28;1894;-67
2021/08/15 10:08:23;;;;;;;;;;;22.00;64.30;;;;;;5031264;28;1115;-67
2021/08/15 10:10:49;;;;;;;;;;;22.00;64.30;;;;;;5032051;28;1078;-67
2021/08/15 10:13:17;;;;;;;;;;;22.00;64.10;;;;;;5031122;28;1076;-67
2021/08/15 10:15:42;;;;;;;;;;;22.00;63.70;;;;;;5031609;28;1297;-67
2021/08/15 10:18:09;;;;;;;;;;;22.00;63.40;;;;;;5030868;28;1259;-67
2021/08/15 10:20:34;;;;;;;;;;;22.00;63.40;;;;;;5030910;28;1163;-66
2021/08/15 10:23:07;;;;;;;;;;;22.00;64.50;;;;;;5030797;28;1155;-67
2021/08/15 10:25:33;;;;;;;;;;;22.00;63.50;;;;;;5030064;28;1902;-67
2021/08/15 10:27:59;;;;;;;;;;;22.00;63.60;;;;;;5032163;28;1210;-67
2021/08/15 10:30:30;;;;;;;;;;;22.00;63.00;;;;;;5031730;28;1143;-66
2021/08/15 10:32:56;;;;;;;;;;;22.00;63.90;;;;;;5030663;28;1302;-67
2021/08/15 10:35:21;;;;;;;;;;;22.00;63.50;;;;;;5031741;28;1375;-67
2021/08/15 10:37:47;;;;;;;;;;;22.00;63.80;;;;;;5031762;28;1131;-67
2021/08/15 10:40:32;;;;;;;;;;;22.00;63.80;;;;;;5034921;28;1092;-67
2021/08/15 10:42:57;;;;;;;;;;;22.00;64.10;;;;;;5035406;28;1111;-66
2021/08/15 10:45:23;;;;;;;;;;;22.00;63.50;;;;;;5033432;28;1898;-66
2021/08/15 10:48:12;;;;;;;;;;;22.10;63.70;;;;;;5035651;28;1084;-66
2021/08/15 10:50:45;;;;;;;;;;;22.10;63.80;;;;;;5022279;28;1191;-67
2021/08/15 10:53:25;;;;;;;;;;;22.10;63.70;;;;;;5034323;28;1136;-67
2021/08/15 10:55:51;;;;;;;;;;;22.10;63.90;;;;;;5034711;28;1213;-66
2021/08/15 10:58:36;;;;;;;;;;;22.10;63.80;;;;;;5034507;28;1116;-67
2021/08/15 11:01:02;;;;;;;;;;;22.10;64.00;;;;;;5035581;28;1139;-66
2021/08/15 11:03:27;;;;;;;;;;;22.10;64.50;;;;;;5034315;28;1973;-65
2021/08/15 11:05:52;;;;;;;;;;;22.10;64.50;;;;;;5030632;28;2006;-67
2021/08/15 11:08:33;;;;;;;;;;;22.10;64.40;;;;;;5025689;28;1156;-67
2021/08/15 11:11:08;;;;;;;;;;;22.10;64.00;;;;;;5034196;28;1167;-67
2021/08/15 11:13:34;;;;;;;;;;;22.10;64.40;;;;;;5035167;28;1108;-66
2021/08/15 11:16:19;;;;;;;;;;;22.10;63.90;;;;;;5033390;28;1307;-67
2021/08/15 11:19:03;;;;;;;;;;;22.10;64.20;;;;;;5035143;28;1040;-67
2021/08/15 11:21:47;;;;;;;;;;;22.10;64.50;;;;;;5035302;28;1182;-67
2021/08/15 11:24:12;;;;;;;;;;;22.10;64.50;;;;;;5034458;28;1354;-66
2021/08/15 11:26:37;;;;;;;;;;;22.10;64.80;;;;;;5033547;28;1898;-67
2021/08/15 11:29:08;;;;;;;;;;;22.10;64.80;;;;;;5035241;28;1080;-67
2021/08/15 11:31:36;;;;;;;;;;;22.00;64.50;;;;;;5020362;28;1034;-67
2021/08/15 11:34:05;;;;;;;;;;;22.10;64.90;;;;;;5034463;28;1376;-66
2021/08/15 11:36:30;;;;;;;;;;;22.10;64.70;;;;;;5035264;28;1119;-65
2021/08/15 11:38:56;;;;;;;;;;;22.10;64.10;;;;;;5033548;28;1198;-66
2021/08/15 11:41:21;;;;;;;;;;;22.10;64.00;;;;;;5034004;28;1112;-66
2021/08/15 11:43:53;;;;;;;;;;;22.10;64.40;;;;;;5032783;28;1100;-65
2021/08/15 11:46:19;;;;;;;;;;;22.10;64.70;;;;;;5034298;28;1902;-66
2021/08/15 11:48:45;;;;;;;;;;;22.10;65.50;;;;;;5035031;28;1045;-64
2021/08/15 11:51:10;;;;;;;;;;;22.10;66.40;;;;;;5034001;28;1053;-67
2021/08/15 11:53:36;;;;;;;;;;;22.10;66.00;;;;;;5033222;28;1849;-66
2021/08/15 11:56:08;;;;;;;;;;;22.20;62.80;;;;;;5033620;28;1293;-67
2021/08/15 11:58:34;;;;;;;;;;;22.30;62.30;;;;;;5033443;28;1105;-66
2021/08/15 12:01:06;;;;;;;;;;;22.40;61.90;;;;;;5033379;28;1076;-67
2021/08/15 12:03:31;;;;;;;;;;;22.30;62.10;;;;;;5034445;28;1072;-65
2021/08/15 12:06:02;;;;;;;;;;;22.40;62.10;;;;;;5033412;28;1959;-66
2021/08/15 12:08:41;;;;;;;;;;;22.40;61.70;;;;;;5033137;28;1159;-67
2021/08/15 12:11:25;;;;;;;;;;;22.40;61.80;;;;;;5033193;28;1057;-66
2021/08/15 12:13:52;;;;;;;;;;;22.40;61.80;;;;;;5033982;28;1362;-66
2021/08/15 12:16:20;;;;;;;;;;;22.30;63.30;;;;;;5032908;28;1187;-66
2021/08/15 12:18:48;;;;;;;;;;;22.40;65.10;;;;;;5033185;28;1116;-67
2021/08/15 12:21:15;;;;;;;;;;;22.40;65.40;;;;;;5033894;28;1139;-67
2021/08/15 12:23:55;;;;;;;;;;;22.40;64.50;;;;;;5033132;28;1123;-67
2021/08/15 12:26:23;;;;;;;;;;;22.40;64.20;;;;;;5032526;28;2293;-66
2021/08/15 12:28:48;;;;;;;;;;;22.40;65.10;;;;;;5034386;28;1199;-66
2021/08/15 12:31:21;;;;;;;;;;;22.30;67.00;;;;;;5032386;28;1603;-66
2021/08/15 12:33:47;;;;;;;;;;;22.30;68.70;;;;;;5033052;28;997;-65
2021/08/15 12:36:20;;;;;;;;;;;22.30;67.80;;;;;;5031475;28;1239;-67
2021/08/15 12:38:45;;;;;;;;;;;22.30;67.10;;;;;;5033954;28;1244;-66
2021/08/15 12:41:23;;;;;;;;;;;22.30;66.30;;;;;;5033582;28;1076;-66
2021/08/15 12:44:07;;;;;;;;;;;22.30;67.10;;;;;;5031045;28;1379;-65
2021/08/15 12:46:33;;;;;;;;;;;22.30;66.70;;;;;;5033719;28;1902;-66
2021/08/15 12:48:58;;;;;;;;;;;22.30;66.30;;;;;;5032451;28;1187;-67
2021/08/15 12:51:24;;;;;;;;;;;22.40;66.10;;;;;;5033582;28;1115;-65
2021/08/15 12:53:49;;;;;;;;;;;22.40;68.70;;;;;;5032233;28;1430;-66
2021/08/15 12:56:18;;;;;;;;;;;22.40;67.50;;;;;;5032521;28;1056;-68
2021/08/15 12:58:44;;;;;;;;;;;22.40;65.60;;;;;;5033449;28;1147;-66
2021/08/15 13:01:10;;;;;;;;;;;22.40;64.80;;;;;;5032302;28;1064;-66
2021/08/15 13:03:35;;;;;;;;;;;22.40;64.50;;;;;;5033129;28;1100;-66
2021/08/15 13:06:03;;;;;;;;;;;22.40;65.30;;;;;;5032796;28;1902;-67
2021/08/15 13:08:29;;;;;;;;;;;22.40;67.50;;;;;;5033020;28;1143;-68
2021/08/15 13:10:54;;;;;;;;;;;22.40;67.20;;;;;;5032966;28;1127;-66
2021/08/15 13:13:19;;;;;;;;;;;22.40;68.00;;;;;;5033457;28;1135;-67
2021/08/15 13:15:45;;;;;;;;;;;22.40;66.40;;;;;;5032598;28;1243;-67
2021/08/15 13:18:10;;;;;;;;;;;22.40;66.20;;;;;;5033164;28;1142;-66
2021/08/15 13:20:38;;;;;;;;;;;22.40;66.20;;;;;;5031537;28;1151;-67
2021/08/15 13:23:05;;;;;;;;;;;22.40;67.00;;;;;;5032879;28;1287;-66
2021/08/15 13:25:30;;;;;;;;;;;22.40;67.20;;;;;;5032591;28;1898;-63
2021/08/15 13:27:59;;;;;;;;;;;22.40;66.80;;;;;;5031839;28;1112;-64
2021/08/15 13:30:25;;;;;;;;;;;22.40;66.40;;;;;;5032576;28;1132;-64
2021/08/15 13:32:51;;;;;;;;;;;22.40;65.60;;;;;;5031647;28;1109;-63
2021/08/15 13:35:16;;;;;;;;;;;22.40;65.50;;;;;;5032030;28;1229;-63
2021/08/15 13:37:41;;;;;;;;;;;22.40;65.60;;;;;;5032730;28;1095;-64
2021/08/15 13:40:08;;;;;;;;;;;22.30;65.60;;;;;;5032382;28;1111;-64
2021/08/15 13:42:34;;;;;;;;;;;22.40;65.40;;;;;;5032931;28;1294;-65
2021/08/15 13:44:59;;;;;;;;;;;22.30;65.20;;;;;;5020891;28;1679;-63
2021/08/15 13:47:25;;;;;;;;;;;22.40;64.90;;;;;;5027494;28;1974;-64
2021/08/15 13:49:51;;;;;;;;;;;22.30;64.80;;;;;;5030506;28;1159;-64
2021/08/15 13:52:16;;;;;;;;;;;22.30;65.10;;;;;;5031337;28;1069;-65
2021/08/15 13:54:42;;;;;;;;;;;22.30;64.70;;;;;;5031207;28;1275;-64
2021/08/15 13:57:07;;;;;;;;;;;22.30;64.70;;;;;;5032401;28;1140;-63
2021/08/15 13:59:33;;;;;;;;;;;22.30;64.50;;;;;;5031424;28;1143;-64
2021/08/15 14:01:58;;;;;;;;;;;22.30;64.30;;;;;;5026265;28;1704;-65
2021/08/15 14:04:23;;;;;;;;;;;22.30;64.00;;;;;;5031365;28;1355;-64
2021/08/15 14:06:49;;;;;;;;;;;22.30;64.30;;;;;;5031081;28;1955;-64
2021/08/15 14:09:14;;;;;;;;;;;22.30;64.30;;;;;;5031444;28;1091;-64
2021/08/15 14:11:40;;;;;;;;;;;22.30;64.50;;;;;;5027676;28;1150;-65
2021/08/15 14:14:06;;;;;;;;;;;22.30;63.80;;;;;;5033217;28;1406;-65
2021/08/15 14:16:31;;;;;;;;;;;22.30;64.00;;;;;;5035484;28;1158;-63
2021/08/15 14:18:57;;;;;;;;;;;22.30;63.90;;;;;;5036894;28;1084;-64
2021/08/15 14:21:22;;;;;;;;;;;22.40;64.20;;;;;;5055737;28;1193;-64
2021/08/15 14:23:48;;;;;;;;;;;22.30;64.10;;;;;;5034553;28;1576;-65
2021/08/15 14:26:16;;;;;;;;;;;22.40;64.10;;;;;;5030639;28;1979;-63